Berkeley Heights, NJ

12:46 PM EDT on September 22, 2014 (GMT -0400)
Summit MUNI | Change Station
CLOSE
Current Station
Personal Weather Station
Location: Summit, NJ
Elevation: 189 ft
Nearby Weather Stations

Elev 189 ft 40.74 °N, 74.37 °W | Updated 8 seconds ago

Overcast
Overcast
68.1 °F
Feels Like 68.1 °F
N
4.0
Wind Variable Wind from West
Gusts 10.0 mph

Today
High -- | Low -- °F
--% Chance of Precip.
Yesterday
High -- | Low -- °F
Precip. -- in
6:45 AM 6:54 PM
Waning Crescent, 2% visible
Pressure 29.91 in
Visibility 10.0 miles
Clouds Overcast 3500 ft
Dew Point 52 °F
Humidity 57%
Rainfall 0.00 in
Snow Depth Not available.
UV 2 out of 12
Pollen 4.00 out of 12
Air Quality Not available.
Flu Activity Not available.
METAR KMMU 221545Z 32012G21KT 10SM OVC035 21/11 A2991

More Conditions Fewer Conditions

Pressure 29.91 in
Visibility 10.0 miles
Clouds Overcast 3500 ft
Dew Point 52 °F
Humidity 57%
Rainfall 0.00 in
Snow Depth Not available.
UV 2 out of 12
Pollen 4.00 out of 12
Air Quality Not available.
Flu Activity Not available.
METAR KMMU 221545Z 32012G21KT 10SM OVC035 21/11 A2991

More Conditions Fewer Conditions

10-Day Weather Forecast

Almanac

Astronomy

Sep. 22, 2014 Rise Set
Actual Time 6:45 AM EDT 6:54 PM EDT
Civil Twilight 6:17 AM EDT 7:22 PM EDT
Nautical Twilight 5:45 AM EDT 7:54 PM EDT
Astronomical Twilight 5:13 AM EDT 8:26 PM EDT
Moon 5:11 AM EDT 6:01 PM EDT
Length of Visible Light 13h 04m
Length of Day
12h 09m
Tomorrow will be 2m 40s shorter.
Waning Crescent, 2% of the Moon is Illuminated
Today
Waning Crescent
Sep 24
New
Oct 1
First Quarter
Oct 8
Full
Oct 15
Last Quarter

Today's Extremes

State Highs State Lows

Community

WunderPhotos

Upload Photos

1,755,480 photos uploaded!

WunderBlogs® & News

Nearby

Snow Depth

Station Depth Elevation
No new snow has been reported.

Earthquake Activity

City Distance Mag. Time & Date
No recent earthquake activity has been reported nearby.
Minimum magnitude displayed is 2.5.

Coastal Water Temperatures

Place Temperature
Sandy Hook, NJ 69.1 °F
The Battery, NY 70.0 °F
Bergen Point West Reach, NJ 70.0 °F
Kings Point, NY 68.0 °F

Nearby Weather Stations